Station: Nullarbor

  Atmospheric Gas Attenuation - ITU Rec 676-11   --------------- db/100km ---------------
Date Time Temp RH % AH g/m3 Dew Point Wind Direction Speed kph Gust kph Barometer mB Rainfall Since 9am 24GHz 47GHz 76GHz 122GHz 134GHz 241GHz
25 01:20 15.7 84 11.24 13 13 15 1010.2 0 25.1 29.6 49.5 130.5 131.3 453.9
25 01:10 16 83 11.31 13.1 15 17 1010.4 0 25.3 29.6 49.7 130.8 131.8 455.6
25 01:00 16.3 82 11.38 13.2 15 19 1010.6 0 25.4 29.6 49.8 131.1 132.3 457.3
25 00:50 16.4 81 11.3 13.1 17 19 1010.6 0 25.2 29.5 49.4 130.1 131.0 452.8
25 00:40 16.7 79 11.23 13 15 19 1010.7 0 25.1 29.3 48.9 128.8 129.5 447.7
25 00:30 16.9 78 11.22 13 17 20 1010.9 0 25.0 29.2 48.7 128.4 129.1 446.1
25 00:20 17.1 78 11.35 13.2 17 19 1011 0 25.3 29.3 49.2 129.5 130.5 451.3
25 00:10 17 80 11.58 13.5 19 19 1011 0 25.8 29.8 50.2 132.3 133.9 463.1
25 00:00 17.1 81 11.79 13.8 17 20 1011.3 0 26.2 30.1 51.1 134.5 136.7 472.9
24 23:50 17.2 82 12.01 14.1 17 20 1011.2 0 26.7 30.4 51.9 136.9 139.6 483.0
24 23:40 17.3 82 12.08 14.2 19 20 1011.2 0 26.8 30.5 52.2 137.5 140.4 485.9
24 23:30 17.3 81 11.93 14 19 22 1011.4 0 26.5 30.3 51.5 135.8 138.3 478.5
24 23:20 17.4 78 11.56 13.5 19 20 1011.3 0 25.7 29.6 49.9 131.4 133.0 459.8
24 23:10 17.5 75 11.18 13 20 22 1011.4 0 24.9 28.9 48.2 127.0 127.6 441.0
24 23:00 17.5 73 10.88 12.6 19 22 1011.5 0 24.3 28.4 47.0 123.7 123.5 426.7
24 22:50 17.4 70 10.37 11.9 19 22 1011.5 0 23.2 27.6 44.9 118.3 116.8 403.2
24 22:40 17.6 66 9.9 11.2 20 24 1011.6 0 22.2 26.8 42.9 112.9 110.3 380.5
24 22:30 17.6 67 10.05 11.4 20 26 1011.7 0 22.5 27.1 43.5 114.5 112.2 387.4
24 22:20 17.6 65 9.75 10.9 22 24 1011.6 0 21.9 26.6 42.3 111.3 108.3 373.6
24 22:10 17.6 69 10.35 11.8 20 24 1011.7 0 23.1 27.5 44.8 117.8 116.2 401.3
24 22:00 17.6 70 10.5 12.1 22 28 1011.7 0 23.4 27.8 45.4 119.4 118.2 408.3
24 21:50 17.7 70 10.56 12.2 20 24 1011.7 0 23.6 27.9 45.6 119.9 118.9 410.6
24 21:40 17.6 74 11.1 12.9 19 22 1011.6 0 24.7 28.8 47.8 126.0 126.3 436.6
24 21:30 17.8 74 11.23 13.1 24 30 1011.7 0 25.0 28.9 48.3 127.1 127.8 441.8
24 21:20 17.8 74 11.23 13.1 20 26 1011.6 0 25.0 28.9 48.3 127.1 127.8 441.7
24 21:10 17.9 74 11.3 13.2 20 24 1011.6 0 25.1 29.0 48.5 127.7 128.6 444.5
24 21:00 18.1 74 11.43 13.4 24 33 1011.7 0 25.4 29.2 48.9 128.8 130.0 449.6
24 20:50 18.3 73 11.41 13.4 22 26 1011.5 0 25.3 29.1 48.7 128.2 129.4 447.4
24 20:40 18.5 71 11.23 13.1 28 32 1011.6 0 25.0 28.7 47.8 125.9 126.6 437.8
24 20:30 18.8 68 10.95 12.8 24 33 1011.6 0 24.3 28.1 46.5 122.4 122.4 423.0
24 20:20 19.3 63 10.45 12.1 26 30 1011.6 0 23.2 27.2 44.2 116.3 115.0 397.3
24 20:10 19.8 56 9.56 10.8 26 32 1011.5 0 21.3 25.6 40.5 106.3 102.9 355.0
24 20:00 20.2 54 9.44 10.6 32 39 1011.6 0 21.1 25.3 39.8 104.6 100.9 348.0
24 19:50 20.7 50 9 9.9 32 37 1011.5 0 20.1 24.5 37.9 99.5 94.8 326.9
24 19:40 21 50 9.16 10.2 28 33 1011.5 0 20.4 24.7 38.4 100.8 96.4 332.5
24 19:30 21.2 47 8.71 9.4 32 39 1011.5 0 19.5 24.0 36.6 96.1 90.7 312.6
24 19:20 21.8 49 9.4 10.6 28 32 1011.4 0 20.9 24.8 38.9 102.1 98.3 339.3
24 19:10 21.8 44 8.44 9 32 37 1011.4 0 18.9 23.4 35.4 92.8 86.9 299.1
24 19:00 22.1 45 8.78 9.6 32 37 1011.5 0 19.6 23.8 36.5 95.7 90.5 312.1
24 18:50 22.2 56 10.99 13 26 30 1011.4 0 24.2 27.1 44.7 117.6 117.6 406.8
24 18:40 21.9 57 11 13 32 35 1011.4 0 24.3 27.2 44.9 118.2 118.2 408.8
24 18:30 23.1 54 11.16 13.3 30 39 1011.5 0 24.5 27.1 44.8 118.1 118.4 409.8
24 18:20 22.5 56 11.18 13.3 30 33 1011.4 0 24.6 27.3 45.3 119.2 119.6 413.7
24 18:10 23 55 11.3 13.5 30 33 1011.4 0 24.8 27.4 45.4 119.7 120.4 416.5
24 18:00 22.7 56 11.31 13.5 30 39 1011.6 0 24.9 27.5 45.7 120.2 121.0 418.6
24 17:50 23.3 55 11.5 13.8 32 35 1011.6 0 25.2 27.6 46.1 121.3 122.5 423.9
24 17:40 23 57 11.71 14 32 35 1011.7 0 25.7 28.0 47.1 124.0 125.6 435.0
24 17:30 23.3 55 11.5 13.8 35 39 1011.8 0 25.2 27.6 46.1 121.3 122.5 423.9
24 17:20 23.5 53 11.21 13.4 33 37 1011.9 0 24.6 27.1 44.8 118.0 118.5 410.0
24 17:10 24.5 49 10.97 13.1 30 32 1012 0 24.0 26.4 43.4 114.2 114.0 394.5
24 17:00 24.8 49 11.15 13.4 30 35 1012.2 0 24.4 26.6 43.9 115.6 115.8 400.9
24 16:50 24.7 48 10.86 13 32 35 1012.2 0 23.8 26.2 42.9 112.8 112.4 388.9
24 16:40 24.8 47 10.7 13 32 33 1012.3 0 23.5 26.0 42.2 111.1 110.3 381.6
24 16:30 24.7 45 10.19 12 28 33 1012.6 0 22.4 25.2 40.4 106.2 104.3 360.5
24 16:20 24.4 48 10.68 12.7 30 33 1012.6 0 23.4 26.1 42.4 111.5 110.7 382.7
24 16:10 24.7 46 10.41 12.3 28 32 1012.8 0 22.9 25.6 41.2 108.4 107.0 369.8
24 16:00 24.6 48 10.8 12.9 28 37 1013 0 23.7 26.2 42.7 112.4 111.9 387.0
24 15:50 24.8 47 10.7 13 26 33 1013 0 23.5 26.0 42.3 111.2 110.4 381.8
24 15:40 24.8 47 10.7 12.7 28 32 1013.2 0 23.5 26.0 42.3 111.2 110.4 381.8
24 15:30 24.9 47 10.76 12.8 28 35 1013.5 0 23.6 26.1 42.4 111.7 111.0 384.0
24 15:20 24.6 46 10.35 12.5 26 32 1013.6 0 22.7 25.5 41.1 108.0 106.4 368.0
24 15:10 24.7 48 10.86 13 26 28 1013.8 0 23.8 26.3 42.9 113.0 112.5 389.4
24 15:00 24.7 47 10.64 12.6 24 32 1014 0 23.3 26.0 42.1 110.8 109.9 380.0
24 14:50 24.9 47 10.76 12.8 20 28 1014.1 0 23.6 26.1 42.5 111.7 111.1 384.2
24 14:40 25.1 45 10.42 12.3 26 32 1014.3 0 22.9 25.5 41.1 108.1 106.7 368.9
24 14:30 25.2 46 10.71 12.8 20 30 1014.4 0 23.5 25.9 42.1 110.9 110.1 380.7
24 14:20 25.5 45 10.65 12.7 17 22 1014.7 0 23.3 25.8 41.8 109.9 108.9 376.8
24 14:10 26.1 44 10.77 12.9 22 28 1014.8 0 23.5 25.8 41.9 110.3 109.6 379.1
24 14:00 24.6 46 10.35 12.2 19 30 1015 0 22.7 25.6 41.1 108.2 106.6 368.4
24 13:50 25 44 10.13 12.2 22 28 1015.2 0 22.3 25.2 40.2 105.5 103.4 357.4
24 13:40 25.6 43 10.24 12.4 11 20 1015.4 0 22.4 25.2 40.3 105.8 104.0 359.4
24 13:30 25.7 41 9.82 11.5 17 24 1015.6 0 21.6 24.5 38.7 101.7 98.9 341.6
24 13:20 24.8 44 10.02 11.7 17 17 1015.8 0 22.0 25.1 39.9 104.8 102.4 353.8
24 13:10 25.2 40 9.31 10.6 15 19 1016 0 20.5 23.9 37.1 97.5 93.5 322.9
24 13:00 24.5 43 9.62 11.1 13 20 1016.2 0 21.2 24.6 38.6 101.3 98.0 338.5
24 12:50 24 43 9.35 10.7 6 7 1016.4 0 20.7 24.3 37.9 99.4 95.5 329.5
24 12:40 23.3 48 10.04 11.7 11 13 1016.6 0 22.2 25.5 40.7 107.0 104.7 361.6
24 12:30 24.1 46 10.06 11.8 13 24 1016.7 0 22.2 25.4 40.4 106.2 103.9 358.9
24 12:20 23 49 10.07 11.7 15 17 1016.9 0 22.2 25.7 41.0 107.8 105.5 364.3
24 12:10 22.5 50 9.99 11.6 13 17 1017.2 0 22.1 25.7 41.0 107.7 105.2 363.2
24 12:00 22.1 52 10.15 11.8 13 20 1017.3 0 22.4 26.1 41.8 109.8 107.7 372.0
24 11:50 21.9 51 9.84 11.3 13 17 1017.5 0 21.8 25.7 40.7 107.0 104.1 359.5
24 11:40 21.3 54 10.06 11.6 19 24 1017.6 0 22.3 26.2 41.9 110.0 107.7 371.9
24 11:30 21.4 55 10.31 12 19 26 1017.6 0 22.8 26.5 42.8 112.5 110.7 382.5
24 11:20 21.1 55 10.13 11.7 19 20 1017.7 0 22.5 26.4 42.3 111.0 108.9 376.0
24 11:10 20.6 57 10.2 11.8 15 19 1018 0 22.6 26.6 42.8 112.5 110.5 381.5
24 11:00 20.7 58 10.44 12.1 19 24 1018.2 0 23.1 27.0 43.7 114.9 113.4 391.9
24 10:50 21.1 57 10.5 12.3 17 22 1018.2 0 23.2 26.9 43.7 114.9 113.6 392.6
24 10:40 20.5 55 9.79 11.2 15 19 1018.4 0 21.8 26.0 41.3 108.5 105.4 363.9
24 10:30 19.9 57 9.79 11.1 19 24 1018.6 0 21.8 26.2 41.6 109.3 106.3 366.8
24 10:20 20 59 10.2 11.7 15 22 1018.6 0 22.7 26.8 43.2 113.4 111.4 384.6
24 10:10 19.8 62 10.59 12.3 13 19 1018.7 0 23.5 27.5 44.8 117.8 116.7 403.4
24 10:00 19.3 61 10.12 11.6 15 22 1018.8 0 22.5 26.9 43.2 113.6 111.4 384.5
24 09:50 19 64 10.43 12 19 22 1018.6 0 23.2 27.5 44.6 117.3 115.8 400.1
24 09:40 18.7 65 10.41 12 17 20 1018.6 0 23.2 27.6 44.7 117.5 116.0 400.7
24 09:30 18.3 67 10.47 12.1 17 20 1018.6 0 23.3 27.8 45.2 118.8 117.4 405.5
24 09:20 18.1 71 10.97 12.8 20 26 1018.5 0 24.4 28.7 47.3 124.5 124.4 430.0
24 09:10 17.7 72 10.86 12.6 19 22 1018.5 0 24.2 28.6 47.1 124.0 123.6 427.0
24 09:00 17.4 75 11.11 12.9 19 24 1018.6 0 24.7 29.1 48.3 127.2 127.5 440.6
24 08:50 17.2 78 11.42 13.3 17 19 1018.4 0 25.4 29.7 49.8 131.0 132.1 456.7

Last Refresh: 25-Nov-2020 01:35:46

Most of the information presented on this site is sourced from the Bureau of Meteorology.  Copyright in all material sourced from the Bureau of Meteorology resides with the Commonwealth of Australia.